sensor_id;sensor_type;location;lat;lon;timestamp;temperature;humidity
74540;SHT31;66042;51.090;-115.340;2024-02-21T00:01:36;7.62;40.98
74540;SHT31;66042;51.090;-115.340;2024-02-21T00:04:03;7.59;41.12
74540;SHT31;66042;51.090;-115.340;2024-02-21T00:06:31;7.55;41.08
74540;SHT31;66042;51.090;-115.340;2024-02-21T00:08:58;7.52;40.88
74540;SHT31;66042;51.090;-115.340;2024-02-21T00:11:25;7.50;40.92
74540;SHT31;66042;51.090;-115.340;2024-02-21T00:13:53;7.47;41.80
74540;SHT31;66042;51.090;-115.340;2024-02-21T00:16:20;7.42;42.31
74540;SHT31;66042;51.090;-115.340;2024-02-21T00:18:47;7.36;42.28
74540;SHT31;66042;51.090;-115.340;2024-02-21T00:21:15;7.32;42.43
74540;SHT31;66042;51.090;-115.340;2024-02-21T00:23:44;7.26;42.54
74540;SHT31;66042;51.090;-115.340;2024-02-21T00:26:12;7.20;42.92
74540;SHT31;66042;51.090;-115.340;2024-02-21T00:28:40;7.14;43.32
74540;SHT31;66042;51.090;-115.340;2024-02-21T00:31:07;7.07;43.67
74540;SHT31;66042;51.090;-115.340;2024-02-21T00:33:34;6.99;43.47
74540;SHT31;66042;51.090;-115.340;2024-02-21T00:36:01;6.94;43.42
74540;SHT31;66042;51.090;-115.340;2024-02-21T00:38:28;6.86;43.65
74540;SHT31;66042;51.090;-115.340;2024-02-21T00:40:56;6.81;43.96
74540;SHT31;66042;51.090;-115.340;2024-02-21T00:43:23;6.75;44.06
74540;SHT31;66042;51.090;-115.340;2024-02-21T00:45:50;6.67;44.45
74540;SHT31;66042;51.090;-115.340;2024-02-21T00:48:17;6.60;44.56
74540;SHT31;66042;51.090;-115.340;2024-02-21T00:50:44;6.51;44.91
74540;SHT31;66042;51.090;-115.340;2024-02-21T00:53:11;6.42;44.86
74540;SHT31;66042;51.090;-115.340;2024-02-21T00:55:38;6.36;45.02
74540;SHT31;66042;51.090;-115.340;2024-02-21T00:58:06;6.27;45.00
74540;SHT31;66042;51.090;-115.340;2024-02-21T01:00:33;6.21;45.16
74540;SHT31;66042;51.090;-115.340;2024-02-21T01:03:00;6.14;45.58
74540;SHT31;66042;51.090;-115.340;2024-02-21T01:05:28;6.05;45.96
74540;SHT31;66042;51.090;-115.340;2024-02-21T01:07:55;5.96;46.02
74540;SHT31;66042;51.090;-115.340;2024-02-21T01:10:22;5.90;45.96
74540;SHT31;66042;51.090;-115.340;2024-02-21T01:12:49;5.84;46.11
74540;SHT31;66042;51.090;-115.340;2024-02-21T01:15:16;5.78;46.36
74540;SHT31;66042;51.090;-115.340;2024-02-21T01:17:43;5.71;46.44
74540;SHT31;66042;51.090;-115.340;2024-02-21T01:20:11;5.66;46.68
74540;SHT31;66042;51.090;-115.340;2024-02-21T01:22:38;5.60;46.88
74540;SHT31;66042;51.090;-115.340;2024-02-21T01:25:05;5.54;46.82
74540;SHT31;66042;51.090;-115.340;2024-02-21T01:27:33;5.49;47.24
74540;SHT31;66042;51.090;-115.340;2024-02-21T01:30:00;5.46;47.37
74540;SHT31;66042;51.090;-115.340;2024-02-21T01:32:28;5.42;47.59
74540;SHT31;66042;51.090;-115.340;2024-02-21T01:34:54;5.39;47.56
74540;SHT31;66042;51.090;-115.340;2024-02-21T01:37:21;5.36;47.98
74540;SHT31;66042;51.090;-115.340;2024-02-21T01:39:48;5.29;48.35
74540;SHT31;66042;51.090;-115.340;2024-02-21T01:42:16;5.24;48.46
74540;SHT31;66042;51.090;-115.340;2024-02-21T01:44:43;5.21;48.60
74540;SHT31;66042;51.090;-115.340;2024-02-21T01:47:10;5.19;48.80
74540;SHT31;66042;51.090;-115.340;2024-02-21T01:49:40;5.15;48.78
74540;SHT31;66042;51.090;-115.340;2024-02-21T01:52:07;5.10;48.58
74540;SHT31;66042;51.090;-115.340;2024-02-21T01:54:36;5.08;48.51
74540;SHT31;66042;51.090;-115.340;2024-02-21T01:57:03;5.05;48.76
74540;SHT31;66042;51.090;-115.340;2024-02-21T01:59:31;4.99;48.87
74540;SHT31;66042;51.090;-115.340;2024-02-21T02:01:58;4.96;48.69
74540;SHT31;66042;51.090;-115.340;2024-02-21T02:04:26;4.91;48.81
74540;SHT31;66042;51.090;-115.340;2024-02-21T02:06:54;4.89;48.91
74540;SHT31;66042;51.090;-115.340;2024-02-21T02:09:21;4.86;48.57
74540;SHT31;66042;51.090;-115.340;2024-02-21T02:11:49;4.84;48.63
74540;SHT31;66042;51.090;-115.340;2024-02-21T02:14:16;4.81;48.83
74540;SHT31;66042;51.090;-115.340;2024-02-21T02:16:45;4.78;49.12
74540;SHT31;66042;51.090;-115.340;2024-02-21T02:19:13;4.72;49.51
74540;SHT31;66042;51.090;-115.340;2024-02-21T02:21:42;4.68;49.64
74540;SHT31;66042;51.090;-115.340;2024-02-21T02:24:32;4.62;49.84
74540;SHT31;66042;51.090;-115.340;2024-02-21T02:26:59;4.55;50.10
74540;SHT31;66042;51.090;-115.340;2024-02-21T02:29:26;4.47;50.52
74540;SHT31;66042;51.090;-115.340;2024-02-21T02:31:53;4.41;50.56
74540;SHT31;66042;51.090;-115.340;2024-02-21T02:34:20;4.36;50.74
74540;SHT31;66042;51.090;-115.340;2024-02-21T02:36:46;4.32;50.99
74540;SHT31;66042;51.090;-115.340;2024-02-21T02:39:15;4.26;50.98
74540;SHT31;66042;51.090;-115.340;2024-02-21T02:41:42;4.22;51.00
74540;SHT31;66042;51.090;-115.340;2024-02-21T02:44:08;4.15;51.22
74540;SHT31;66042;51.090;-115.340;2024-02-21T02:46:36;4.12;51.16
74540;SHT31;66042;51.090;-115.340;2024-02-21T02:49:05;4.08;51.44
74540;SHT31;66042;51.090;-115.340;2024-02-21T02:51:33;4.03;51.69
74540;SHT31;66042;51.090;-115.340;2024-02-21T02:54:00;3.98;51.84
74540;SHT31;66042;51.090;-115.340;2024-02-21T02:56:28;3.99;51.97
74540;SHT31;66042;51.090;-115.340;2024-02-21T02:58:55;3.96;52.14
74540;SHT31;66042;51.090;-115.340;2024-02-21T03:01:23;3.94;52.21
74540;SHT31;66042;51.090;-115.340;2024-02-21T03:03:50;3.91;52.21
74540;SHT31;66042;51.090;-115.340;2024-02-21T03:06:16;3.90;51.92
74540;SHT31;66042;51.090;-115.340;2024-02-21T03:08:44;3.89;51.89
74540;SHT31;66042;51.090;-115.340;2024-02-21T03:11:11;3.84;52.20
74540;SHT31;66042;51.090;-115.340;2024-02-21T03:13:38;3.81;52.15
74540;SHT31;66042;51.090;-115.340;2024-02-21T03:16:05;3.80;52.30
74540;SHT31;66042;51.090;-115.340;2024-02-21T03:18:32;3.76;52.48
74540;SHT31;66042;51.090;-115.340;2024-02-21T03:20:59;3.71;52.84
74540;SHT31;66042;51.090;-115.340;2024-02-21T03:23:27;3.67;52.87
74540;SHT31;66042;51.090;-115.340;2024-02-21T03:25:54;3.63;52.92
74540;SHT31;66042;51.090;-115.340;2024-02-21T03:28:21;3.60;52.96
74540;SHT31;66042;51.090;-115.340;2024-02-21T03:30:48;3.61;52.87
74540;SHT31;66042;51.090;-115.340;2024-02-21T03:33:15;3.61;53.15
74540;SHT31;66042;51.090;-115.340;2024-02-21T03:35:43;3.61;52.58
74540;SHT31;66042;51.090;-115.340;2024-02-21T03:38:10;3.62;52.41
74540;SHT31;66042;51.090;-115.340;2024-02-21T03:40:37;3.63;52.24
74540;SHT31;66042;51.090;-115.340;2024-02-21T03:43:04;3.63;52.36
74540;SHT31;66042;51.090;-115.340;2024-02-21T03:45:32;3.63;52.78
74540;SHT31;66042;51.090;-115.340;2024-02-21T03:47:59;3.62;52.87
74540;SHT31;66042;51.090;-115.340;2024-02-21T03:50:26;3.61;52.81
74540;SHT31;66042;51.090;-115.340;2024-02-21T03:52:54;3.62;52.99
74540;SHT31;66042;51.090;-115.340;2024-02-21T03:55:21;3.57;53.20
74540;SHT31;66042;51.090;-115.340;2024-02-21T03:57:48;3.54;53.32
74540;SHT31;66042;51.090;-115.340;2024-02-21T04:00:15;3.52;53.37
74540;SHT31;66042;51.090;-115.340;2024-02-21T04:02:43;3.51;53.43
74540;SHT31;66042;51.090;-115.340;2024-02-21T04:05:10;3.50;53.58
74540;SHT31;66042;51.090;-115.340;2024-02-21T04:07:37;3.49;53.70
74540;SHT31;66042;51.090;-115.340;2024-02-21T04:10:05;3.47;53.62
74540;SHT31;66042;51.090;-115.340;2024-02-21T04:12:33;3.47;53.76
74540;SHT31;66042;51.090;-115.340;2024-02-21T04:15:00;3.44;53.72
74540;SHT31;66042;51.090;-115.340;2024-02-21T04:17:27;3.45;53.61
74540;SHT31;66042;51.090;-115.340;2024-02-21T04:22:33;3.43;53.84
74540;SHT31;66042;51.090;-115.340;2024-02-21T04:25:03;3.42;53.82
74540;SHT31;66042;51.090;-115.340;2024-02-21T04:27:30;3.41;54.06
74540;SHT31;66042;51.090;-115.340;2024-02-21T04:29:57;3.41;54.18
74540;SHT31;66042;51.090;-115.340;2024-02-21T04:32:24;3.41;54.06
74540;SHT31;66042;51.090;-115.340;2024-02-21T04:34:53;3.40;53.98
74540;SHT31;66042;51.090;-115.340;2024-02-21T04:37:20;3.39;54.08
74540;SHT31;66042;51.090;-115.340;2024-02-21T04:39:50;3.38;53.83
74540;SHT31;66042;51.090;-115.340;2024-02-21T04:42:17;3.37;54.06
74540;SHT31;66042;51.090;-115.340;2024-02-21T04:44:44;3.36;54.16
74540;SHT31;66042;51.090;-115.340;2024-02-21T04:47:12;3.35;54.46
74540;SHT31;66042;51.090;-115.340;2024-02-21T04:49:39;3.34;54.77
74540;SHT31;66042;51.090;-115.340;2024-02-21T04:52:06;3.34;54.89
74540;SHT31;66042;51.090;-115.340;2024-02-21T04:54:33;3.34;54.95
74540;SHT31;66042;51.090;-115.340;2024-02-21T04:57:01;3.34;54.98
74540;SHT31;66042;51.090;-115.340;2024-02-21T04:59:28;3.34;54.88
74540;SHT31;66042;51.090;-115.340;2024-02-21T05:01:55;3.34;54.80
74540;SHT31;66042;51.090;-115.340;2024-02-21T05:04:24;3.33;54.81
74540;SHT31;66042;51.090;-115.340;2024-02-21T05:06:51;3.32;54.93
74540;SHT31;66042;51.090;-115.340;2024-02-21T05:09:18;3.29;54.81
74540;SHT31;66042;51.090;-115.340;2024-02-21T05:11:45;3.28;54.97
74540;SHT31;66042;51.090;-115.340;2024-02-21T05:14:14;3.24;55.69
74540;SHT31;66042;51.090;-115.340;2024-02-21T05:16:41;3.19;55.95
74540;SHT31;66042;51.090;-115.340;2024-02-21T05:19:08;3.19;55.91
74540;SHT31;66042;51.090;-115.340;2024-02-21T05:21:35;3.19;56.22
74540;SHT31;66042;51.090;-115.340;2024-02-21T05:24:02;3.17;56.44
74540;SHT31;66042;51.090;-115.340;2024-02-21T05:26:29;3.17;56.43
74540;SHT31;66042;51.090;-115.340;2024-02-21T05:28:56;3.18;56.61
74540;SHT31;66042;51.090;-115.340;2024-02-21T05:31:25;3.18;56.59
74540;SHT31;66042;51.090;-115.340;2024-02-21T05:34:08;3.18;56.68
74540;SHT31;66042;51.090;-115.340;2024-02-21T05:36:35;3.17;56.59
74540;SHT31;66042;51.090;-115.340;2024-02-21T05:39:03;3.16;56.99
74540;SHT31;66042;51.090;-115.340;2024-02-21T05:41:30;3.13;57.37
74540;SHT31;66042;51.090;-115.340;2024-02-21T05:43:57;3.10;58.00
74540;SHT31;66042;51.090;-115.340;2024-02-21T05:46:24;3.07;58.25
74540;SHT31;66042;51.090;-115.340;2024-02-21T05:48:51;3.07;58.07
74540;SHT31;66042;51.090;-115.340;2024-02-21T05:51:19;3.08;58.27
74540;SHT31;66042;51.090;-115.340;2024-02-21T05:53:46;3.11;58.43
74540;SHT31;66042;51.090;-115.340;2024-02-21T05:56:13;3.11;58.49
74540;SHT31;66042;51.090;-115.340;2024-02-21T05:58:42;3.11;58.38
74540;SHT31;66042;51.090;-115.340;2024-02-21T06:01:10;3.12;58.43
74540;SHT31;66042;51.090;-115.340;2024-02-21T06:03:37;3.10;58.75
74540;SHT31;66042;51.090;-115.340;2024-02-21T06:06:05;3.08;58.90
74540;SHT31;66042;51.090;-115.340;2024-02-21T06:08:32;3.07;58.78
74540;SHT31;66042;51.090;-115.340;2024-02-21T06:10:59;3.05;58.86
74540;SHT31;66042;51.090;-115.340;2024-02-21T06:13:26;3.02;58.87
74540;SHT31;66042;51.090;-115.340;2024-02-21T06:15:53;3.00;59.07
74540;SHT31;66042;51.090;-115.340;2024-02-21T06:18:20;2.99;59.08
74540;SHT31;66042;51.090;-115.340;2024-02-21T06:20:48;2.99;58.82
74540;SHT31;66042;51.090;-115.340;2024-02-21T06:23:15;2.97;58.64
74540;SHT31;66042;51.090;-115.340;2024-02-21T06:25:43;2.97;58.56
74540;SHT31;66042;51.090;-115.340;2024-02-21T06:28:10;2.96;58.63
74540;SHT31;66042;51.090;-115.340;2024-02-21T06:30:37;2.95;58.70
74540;SHT31;66042;51.090;-115.340;2024-02-21T06:33:05;2.95;58.40
74540;SHT31;66042;51.090;-115.340;2024-02-21T06:35:33;2.94;58.84
74540;SHT31;66042;51.090;-115.340;2024-02-21T06:38:00;2.93;58.87
74540;SHT31;66042;51.090;-115.340;2024-02-21T06:40:27;2.92;59.15
74540;SHT31;66042;51.090;-115.340;2024-02-21T06:42:54;2.92;59.22
74540;SHT31;66042;51.090;-115.340;2024-02-21T06:45:21;2.89;60.19
74540;SHT31;66042;51.090;-115.340;2024-02-21T06:47:48;2.81;61.22
74540;SHT31;66042;51.090;-115.340;2024-02-21T06:50:15;2.76;61.35
74540;SHT31;66042;51.090;-115.340;2024-02-21T06:52:42;2.75;61.53
74540;SHT31;66042;51.090;-115.340;2024-02-21T06:55:09;2.77;61.50
74540;SHT31;66042;51.090;-115.340;2024-02-21T06:57:37;2.76;61.86
74540;SHT31;66042;51.090;-115.340;2024-02-21T07:00:04;2.76;62.21
74540;SHT31;66042;51.090;-115.340;2024-02-21T07:02:35;2.73;63.04
74540;SHT31;66042;51.090;-115.340;2024-02-21T07:05:02;2.72;63.36
74540;SHT31;66042;51.090;-115.340;2024-02-21T07:07:30;2.69;63.90
74540;SHT31;66042;51.090;-115.340;2024-02-21T07:09:57;2.67;63.94
74540;SHT31;66042;51.090;-115.340;2024-02-21T07:12:25;2.65;64.24
74540;SHT31;66042;51.090;-115.340;2024-02-21T07:14:52;2.66;64.20
74540;SHT31;66042;51.090;-115.340;2024-02-21T07:17:20;2.65;64.34
74540;SHT31;66042;51.090;-115.340;2024-02-21T07:19:47;2.64;64.61
74540;SHT31;66042;51.090;-115.340;2024-02-21T07:22:15;2.63;64.41
74540;SHT31;66042;51.090;-115.340;2024-02-21T07:24:42;2.62;64.69
74540;SHT31;66042;51.090;-115.340;2024-02-21T07:27:09;2.60;64.82
74540;SHT31;66042;51.090;-115.340;2024-02-21T07:29:36;2.58;65.13
74540;SHT31;66042;51.090;-115.340;2024-02-21T07:32:03;2.58;64.97
74540;SHT31;66042;51.090;-115.340;2024-02-21T07:34:30;2.58;65.30
74540;SHT31;66042;51.090;-115.340;2024-02-21T07:36:57;2.59;65.32
74540;SHT31;66042;51.090;-115.340;2024-02-21T07:39:25;2.58;65.39
74540;SHT31;66042;51.090;-115.340;2024-02-21T07:41:52;2.59;65.45
74540;SHT31;66042;51.090;-115.340;2024-02-21T07:44:19;2.59;65.48
74540;SHT31;66042;51.090;-115.340;2024-02-21T07:46:46;2.60;65.39
74540;SHT31;66042;51.090;-115.340;2024-02-21T07:49:13;2.60;65.22
74540;SHT31;66042;51.090;-115.340;2024-02-21T07:51:40;2.62;65.03
74540;SHT31;66042;51.090;-115.340;2024-02-21T07:54:07;2.63;65.15
74540;SHT31;66042;51.090;-115.340;2024-02-21T07:56:34;2.61;65.27
74540;SHT31;66042;51.090;-115.340;2024-02-21T07:59:02;2.61;65.18
74540;SHT31;66042;51.090;-115.340;2024-02-21T08:01:29;2.62;65.08
74540;SHT31;66042;51.090;-115.340;2024-02-21T08:03:56;2.62;65.09
74540;SHT31;66042;51.090;-115.340;2024-02-21T08:06:24;2.58;65.47
74540;SHT31;66042;51.090;-115.340;2024-02-21T08:08:51;2.51;65.75
74540;SHT31;66042;51.090;-115.340;2024-02-21T08:11:19;2.49;65.82
74540;SHT31;66042;51.090;-115.340;2024-02-21T08:13:46;2.51;65.90
74540;SHT31;66042;51.090;-115.340;2024-02-21T08:16:13;2.49;65.94
74540;SHT31;66042;51.090;-115.340;2024-02-21T08:18:40;2.48;66.19
74540;SHT31;66042;51.090;-115.340;2024-02-21T08:21:09;2.50;66.13
74540;SHT31;66042;51.090;-115.340;2024-02-21T08:23:36;2.52;66.16
74540;SHT31;66042;51.090;-115.340;2024-02-21T08:26:04;2.55;66.17
74540;SHT31;66042;51.090;-115.340;2024-02-21T08:28:31;2.57;66.04
74540;SHT31;66042;51.090;-115.340;2024-02-21T08:30:59;2.59;65.80
74540;SHT31;66042;51.090;-115.340;2024-02-21T08:33:26;2.60;65.56
74540;SHT31;66042;51.090;-115.340;2024-02-21T08:35:55;2.62;65.26
74540;SHT31;66042;51.090;-115.340;2024-02-21T08:38:22;2.65;65.10
74540;SHT31;66042;51.090;-115.340;2024-02-21T08:40:50;2.67;65.16
74540;SHT31;66042;51.090;-115.340;2024-02-21T08:43:17;2.70;64.99
74540;SHT31;66042;51.090;-115.340;2024-02-21T08:45:44;2.73;64.92
74540;SHT31;66042;51.090;-115.340;2024-02-21T08:48:11;2.76;65.06
74540;SHT31;66042;51.090;-115.340;2024-02-21T08:50:38;2.78;65.50
74540;SHT31;66042;51.090;-115.340;2024-02-21T08:53:06;2.79;65.27
74540;SHT31;66042;51.090;-115.340;2024-02-21T08:55:34;2.80;65.54
74540;SHT31;66042;51.090;-115.340;2024-02-21T08:58:01;2.80;65.94
74540;SHT31;66042;51.090;-115.340;2024-02-21T09:00:29;2.83;66.12
74540;SHT31;66042;51.090;-115.340;2024-02-21T09:02:56;2.84;66.04
74540;SHT31;66042;51.090;-115.340;2024-02-21T09:05:24;2.84;66.04
74540;SHT31;66042;51.090;-115.340;2024-02-21T09:07:51;2.84;65.89
74540;SHT31;66042;51.090;-115.340;2024-02-21T09:10:18;2.82;65.98
74540;SHT31;66042;51.090;-115.340;2024-02-21T09:12:46;2.81;65.80
74540;SHT31;66042;51.090;-115.340;2024-02-21T09:15:13;2.80;65.49
74540;SHT31;66042;51.090;-115.340;2024-02-21T09:17:41;2.79;65.53
74540;SHT31;66042;51.090;-115.340;2024-02-21T09:20:08;2.77;65.45
74540;SHT31;66042;51.090;-115.340;2024-02-21T09:22:37;2.76;65.87
74540;SHT31;66042;51.090;-115.340;2024-02-21T09:25:05;2.75;65.93
74540;SHT31;66042;51.090;-115.340;2024-02-21T09:27:33;2.74;65.72
74540;SHT31;66042;51.090;-115.340;2024-02-21T09:30:00;2.74;65.47
74540;SHT31;66042;51.090;-115.340;2024-02-21T09:32:30;2.72;65.75
74540;SHT31;66042;51.090;-115.340;2024-02-21T09:34:58;2.71;66.12
74540;SHT31;66042;51.090;-115.340;2024-02-21T09:37:25;2.67;66.08
74540;SHT31;66042;51.090;-115.340;2024-02-21T09:39:52;2.66;66.01
74540;SHT31;66042;51.090;-115.340;2024-02-21T09:42:22;2.65;66.02
74540;SHT31;66042;51.090;-115.340;2024-02-21T09:45:19;2.63;65.93
74540;SHT31;66042;51.090;-115.340;2024-02-21T09:50:51;2.61;65.52
74540;SHT31;66042;51.090;-115.340;2024-02-21T09:53:21;2.59;65.53
74540;SHT31;66042;51.090;-115.340;2024-02-21T09:55:51;2.58;65.28
74540;SHT31;66042;51.090;-115.340;2024-02-21T09:58:18;2.55;65.36
74540;SHT31;66042;51.090;-115.340;2024-02-21T10:00:46;2.53;65.53
74540;SHT31;66042;51.090;-115.340;2024-02-21T10:03:13;2.49;65.63
74540;SHT31;66042;51.090;-115.340;2024-02-21T10:05:45;2.47;65.42
74540;SHT31;66042;51.090;-115.340;2024-02-21T10:08:18;2.45;65.80
74540;SHT31;66042;51.090;-115.340;2024-02-21T10:10:46;2.43;65.58
74540;SHT31;66042;51.090;-115.340;2024-02-21T10:13:27;2.42;65.42
74540;SHT31;66042;51.090;-115.340;2024-02-21T10:16:05;2.37;65.56
74540;SHT31;66042;51.090;-115.340;2024-02-21T10:18:34;2.35;65.55
74540;SHT31;66042;51.090;-115.340;2024-02-21T10:21:05;2.32;65.51
74540;SHT31;66042;51.090;-115.340;2024-02-21T10:23:47;2.30;65.86
74540;SHT31;66042;51.090;-115.340;2024-02-21T10:26:16;2.27;65.88
74540;SHT31;66042;51.090;-115.340;2024-02-21T10:28:45;2.27;65.75
74540;SHT31;66042;51.090;-115.340;2024-02-21T10:31:29;2.24;65.72
74540;SHT31;66042;51.090;-115.340;2024-02-21T10:33:56;2.22;65.77
74540;SHT31;66042;51.090;-115.340;2024-02-21T10:36:25;2.20;65.83
74540;SHT31;66042;51.090;-115.340;2024-02-21T10:38:52;2.18;65.71
74540;SHT31;66042;51.090;-115.340;2024-02-21T10:41:23;2.17;65.67
74540;SHT31;66042;51.090;-115.340;2024-02-21T10:43:51;2.14;65.92
74540;SHT31;66042;51.090;-115.340;2024-02-21T10:46:21;2.12;65.93
74540;SHT31;66042;51.090;-115.340;2024-02-21T10:49:01;2.12;65.86
74540;SHT31;66042;51.090;-115.340;2024-02-21T10:51:43;2.12;65.74
74540;SHT31;66042;51.090;-115.340;2024-02-21T10:56:51;2.12;65.83
74540;SHT31;66042;51.090;-115.340;2024-02-21T10:59:22;2.12;65.77
74540;SHT31;66042;51.090;-115.340;2024-02-21T11:01:52;2.14;65.82
74540;SHT31;66042;51.090;-115.340;2024-02-21T11:04:19;2.14;65.76
74540;SHT31;66042;51.090;-115.340;2024-02-21T11:06:47;2.18;65.51
74540;SHT31;66042;51.090;-115.340;2024-02-21T11:09:15;2.19;65.50
74540;SHT31;66042;51.090;-115.340;2024-02-21T11:11:43;2.21;65.38
74540;SHT31;66042;51.090;-115.340;2024-02-21T11:14:11;2.19;65.34
74540;SHT31;66042;51.090;-115.340;2024-02-21T11:16:46;2.17;65.27
74540;SHT31;66042;51.090;-115.340;2024-02-21T11:19:20;2.14;65.26
74540;SHT31;66042;51.090;-115.340;2024-02-21T11:21:53;2.13;65.27
74540;SHT31;66042;51.090;-115.340;2024-02-21T11:24:30;2.10;65.38
74540;SHT31;66042;51.090;-115.340;2024-02-21T11:29:43;2.05;65.39
74540;SHT31;66042;51.090;-115.340;2024-02-21T11:32:19;2.02;65.33
74540;SHT31;66042;51.090;-115.340;2024-02-21T11:34:56;1.98;65.26
74540;SHT31;66042;51.090;-115.340;2024-02-21T11:37:29;1.96;65.30
74540;SHT31;66042;51.090;-115.340;2024-02-21T11:40:04;1.91;65.21
74540;SHT31;66042;51.090;-115.340;2024-02-21T11:42:35;1.87;65.28
74540;SHT31;66042;51.090;-115.340;2024-02-21T11:45:02;1.81;65.26
74540;SHT31;66042;51.090;-115.340;2024-02-21T11:47:29;1.77;65.27
74540;SHT31;66042;51.090;-115.340;2024-02-21T11:49:57;1.74;65.40
74540;SHT31;66042;51.090;-115.340;2024-02-21T11:52:24;1.70;65.39
74540;SHT31;66042;51.090;-115.340;2024-02-21T11:54:53;1.65;65.40
74540;SHT31;66042;51.090;-115.340;2024-02-21T11:57:23;1.62;65.41
74540;SHT31;66042;51.090;-115.340;2024-02-21T11:59:53;1.60;65.40
74540;SHT31;66042;51.090;-115.340;2024-02-21T12:02:21;1.57;65.51
74540;SHT31;66042;51.090;-115.340;2024-02-21T12:04:48;1.54;65.63
74540;SHT31;66042;51.090;-115.340;2024-02-21T12:07:17;1.51;65.74
74540;SHT31;66042;51.090;-115.340;2024-02-21T12:09:44;1.48;65.76
74540;SHT31;66042;51.090;-115.340;2024-02-21T12:12:11;1.47;65.72
74540;SHT31;66042;51.090;-115.340;2024-02-21T12:14:39;1.45;65.71
74540;SHT31;66042;51.090;-115.340;2024-02-21T12:17:06;1.45;65.70
74540;SHT31;66042;51.090;-115.340;2024-02-21T12:19:33;1.43;65.85
74540;SHT31;66042;51.090;-115.340;2024-02-21T12:22:00;1.40;66.04
74540;SHT31;66042;51.090;-115.340;2024-02-21T12:24:31;1.37;66.07
74540;SHT31;66042;51.090;-115.340;2024-02-21T12:26:58;1.34;66.11
74540;SHT31;66042;51.090;-115.340;2024-02-21T12:29:29;1.33;66.09
74540;SHT31;66042;51.090;-115.340;2024-02-21T12:31:56;1.32;65.99
74540;SHT31;66042;51.090;-115.340;2024-02-21T12:34:23;1.32;66.09
74540;SHT31;66042;51.090;-115.340;2024-02-21T12:36:52;1.31;66.07
74540;SHT31;66042;51.090;-115.340;2024-02-21T12:39:19;1.30;65.98
74540;SHT31;66042;51.090;-115.340;2024-02-21T12:41:46;1.30;65.99
74540;SHT31;66042;51.090;-115.340;2024-02-21T12:44:13;1.30;66.11
74540;SHT31;66042;51.090;-115.340;2024-02-21T12:46:42;1.30;66.04
74540;SHT31;66042;51.090;-115.340;2024-02-21T12:49:09;1.27;66.04
74540;SHT31;66042;51.090;-115.340;2024-02-21T12:51:37;1.26;66.10
74540;SHT31;66042;51.090;-115.340;2024-02-21T12:54:05;1.25;66.10
74540;SHT31;66042;51.090;-115.340;2024-02-21T12:56:32;1.24;66.22
74540;SHT31;66042;51.090;-115.340;2024-02-21T12:58:59;1.22;66.40
74540;SHT31;66042;51.090;-115.340;2024-02-21T13:01:26;1.20;66.55
74540;SHT31;66042;51.090;-115.340;2024-02-21T13:03:53;1.20;66.52
74540;SHT31;66042;51.090;-115.340;2024-02-21T13:06:22;1.16;66.64
74540;SHT31;66042;51.090;-115.340;2024-02-21T13:08:50;1.15;66.57
74540;SHT31;66042;51.090;-115.340;2024-02-21T13:11:17;1.16;66.51
74540;SHT31;66042;51.090;-115.340;2024-02-21T13:13:44;1.16;66.50
74540;SHT31;66042;51.090;-115.340;2024-02-21T13:16:11;1.14;66.58
74540;SHT31;66042;51.090;-115.340;2024-02-21T13:18:38;1.13;66.49
74540;SHT31;66042;51.090;-115.340;2024-02-21T13:21:08;1.11;66.55
74540;SHT31;66042;51.090;-115.340;2024-02-21T13:23:35;1.10;66.52
74540;SHT31;66042;51.090;-115.340;2024-02-21T13:26:02;1.09;66.50
74540;SHT31;66042;51.090;-115.340;2024-02-21T13:28:29;1.07;66.51
74540;SHT31;66042;51.090;-115.340;2024-02-21T13:30:57;1.05;66.59
74540;SHT31;66042;51.090;-115.340;2024-02-21T13:33:24;1.04;66.59
74540;SHT31;66042;51.090;-115.340;2024-02-21T13:35:51;1.03;66.70
74540;SHT31;66042;51.090;-115.340;2024-02-21T13:38:18;1.02;66.81
74540;SHT31;66042;51.090;-115.340;2024-02-21T13:40:46;0.99;66.89
74540;SHT31;66042;51.090;-115.340;2024-02-21T13:43:13;0.97;66.95
74540;SHT31;66042;51.090;-115.340;2024-02-21T13:45:40;0.94;66.96
74540;SHT31;66042;51.090;-115.340;2024-02-21T13:48:35;0.94;66.96
74540;SHT31;66042;51.090;-115.340;2024-02-21T13:51:02;0.93;66.98
74540;SHT31;66042;51.090;-115.340;2024-02-21T13:53:29;0.92;67.11
74540;SHT31;66042;51.090;-115.340;2024-02-21T13:55:56;0.91;67.18
74540;SHT31;66042;51.090;-115.340;2024-02-21T13:58:23;0.91;67.16
74540;SHT31;66042;51.090;-115.340;2024-02-21T14:00:51;0.91;67.15
74540;SHT31;66042;51.090;-115.340;2024-02-21T14:03:19;0.92;67.23
74540;SHT31;66042;51.090;-115.340;2024-02-21T14:05:46;0.92;67.20
74540;SHT31;66042;51.090;-115.340;2024-02-21T14:08:16;0.92;67.32
74540;SHT31;66042;51.090;-115.340;2024-02-21T14:10:43;0.90;67.31
74540;SHT31;66042;51.090;-115.340;2024-02-21T14:13:10;0.92;67.31
74540;SHT31;66042;51.090;-115.340;2024-02-21T14:15:37;0.92;67.35
74540;SHT31;66042;51.090;-115.340;2024-02-21T14:18:11;0.93;67.36
74540;SHT31;66042;51.090;-115.340;2024-02-21T14:20:39;0.93;67.45
74540;SHT31;66042;51.090;-115.340;2024-02-21T14:23:07;0.90;67.52
74540;SHT31;66042;51.090;-115.340;2024-02-21T14:25:34;0.91;67.50
74540;SHT31;66042;51.090;-115.340;2024-02-21T14:28:01;0.94;67.44
74540;SHT31;66042;51.090;-115.340;2024-02-21T14:30:28;0.95;67.49
74540;SHT31;66042;51.090;-115.340;2024-02-21T14:32:55;0.96;67.39
74540;SHT31;66042;51.090;-115.340;2024-02-21T14:35:22;0.95;67.35
74540;SHT31;66042;51.090;-115.340;2024-02-21T14:37:49;0.92;67.55
74540;SHT31;66042;51.090;-115.340;2024-02-21T14:40:15;0.83;67.80
74540;SHT31;66042;51.090;-115.340;2024-02-21T14:42:42;0.83;67.74
74540;SHT31;66042;51.090;-115.340;2024-02-21T14:45:09;0.85;67.65
74540;SHT31;66042;51.090;-115.340;2024-02-21T14:47:36;0.87;67.52
74540;SHT31;66042;51.090;-115.340;2024-02-21T14:50:04;0.88;67.52
74540;SHT31;66042;51.090;-115.340;2024-02-21T14:52:32;0.90;67.41
74540;SHT31;66042;51.090;-115.340;2024-02-21T14:55:01;0.90;67.72
74540;SHT31;66042;51.090;-115.340;2024-02-21T14:57:28;0.88;67.95
74540;SHT31;66042;51.090;-115.340;2024-02-21T14:59:55;0.88;67.91
74540;SHT31;66042;51.090;-115.340;2024-02-21T15:02:24;0.87;67.83
74540;SHT31;66042;51.090;-115.340;2024-02-21T15:04:59;0.88;67.68
74540;SHT31;66042;51.090;-115.340;2024-02-21T15:07:27;0.86;67.70
74540;SHT31;66042;51.090;-115.340;2024-02-21T15:09:54;0.85;67.74
74540;SHT31;66042;51.090;-115.340;2024-02-21T15:12:22;0.84;67.93
74540;SHT31;66042;51.090;-115.340;2024-02-21T15:14:50;0.84;67.83
74540;SHT31;66042;51.090;-115.340;2024-02-21T15:17:17;0.85;68.01
74540;SHT31;66042;51.090;-115.340;2024-02-21T15:19:44;0.85;68.00